sensor_id;sensor_type;location;lat;lon;timestamp;P1;durP1;ratioP1;P2;durP2;ratioP2
11854;SDS011;5987;53.140;8.904;2022-09-11T00:01:04;32.33;;;23.37;;
11854;SDS011;5987;53.140;8.904;2022-09-11T00:04:09;33.77;;;23.83;;
11854;SDS011;5987;53.140;8.904;2022-09-11T00:07:12;37.00;;;24.97;;
11854;SDS011;5987;53.140;8.904;2022-09-11T00:10:18;35.83;;;24.57;;
11854;SDS011;5987;53.140;8.904;2022-09-11T00:13:22;37.47;;;24.60;;
11854;SDS011;5987;53.140;8.904;2022-09-11T00:16:26;32.30;;;23.83;;
11854;SDS011;5987;53.140;8.904;2022-09-11T00:19:32;35.43;;;25.93;;
11854;SDS011;5987;53.140;8.904;2022-09-11T00:22:36;34.90;;;23.73;;
11854;SDS011;5987;53.140;8.904;2022-09-11T00:25:41;31.43;;;22.67;;
11854;SDS011;5987;53.140;8.904;2022-09-11T00:28:47;38.03;;;25.20;;
11854;SDS011;5987;53.140;8.904;2022-09-11T00:31:51;33.27;;;23.97;;
11854;SDS011;5987;53.140;8.904;2022-09-11T00:34:55;32.13;;;23.00;;
11854;SDS011;5987;53.140;8.904;2022-09-11T00:37:58;38.90;;;23.77;;
11854;SDS011;5987;53.140;8.904;2022-09-11T00:41:05;37.80;;;24.47;;
11854;SDS011;5987;53.140;8.904;2022-09-11T00:48:10;35.67;;;24.20;;
11854;SDS011;5987;53.140;8.904;2022-09-11T00:51:23;35.57;;;25.53;;
11854;SDS011;5987;53.140;8.904;2022-09-11T00:54:34;41.27;;;25.77;;
11854;SDS011;5987;53.140;8.904;2022-09-11T00:57:47;37.87;;;25.73;;
11854;SDS011;5987;53.140;8.904;2022-09-11T01:00:54;37.27;;;25.67;;
11854;SDS011;5987;53.140;8.904;2022-09-11T01:03:59;35.23;;;25.47;;
11854;SDS011;5987;53.140;8.904;2022-09-11T01:07:06;36.33;;;25.07;;
11854;SDS011;5987;53.140;8.904;2022-09-11T01:10:11;39.57;;;24.67;;
11854;SDS011;5987;53.140;8.904;2022-09-11T01:13:19;36.63;;;25.90;;
11854;SDS011;5987;53.140;8.904;2022-09-11T01:16:36;37.73;;;26.27;;
11854;SDS011;5987;53.140;8.904;2022-09-11T01:19:57;36.43;;;24.80;;
11854;SDS011;5987;53.140;8.904;2022-09-11T01:27:34;35.57;;;25.27;;
11854;SDS011;5987;53.140;8.904;2022-09-11T01:30:46;35.73;;;24.30;;
11854;SDS011;5987;53.140;8.904;2022-09-11T01:33:57;35.43;;;24.57;;
11854;SDS011;5987;53.140;8.904;2022-09-11T01:37:09;36.57;;;24.00;;
11854;SDS011;5987;53.140;8.904;2022-09-11T01:40:23;32.50;;;24.43;;
11854;SDS011;5987;53.140;8.904;2022-09-11T01:43:40;33.20;;;22.73;;
11854;SDS011;5987;53.140;8.904;2022-09-11T01:46:51;34.23;;;24.30;;
11854;SDS011;5987;53.140;8.904;2022-09-11T01:49:56;32.93;;;23.77;;
11854;SDS011;5987;53.140;8.904;2022-09-11T01:53:05;35.23;;;24.53;;
11854;SDS011;5987;53.140;8.904;2022-09-11T01:56:14;34.43;;;24.23;;
11854;SDS011;5987;53.140;8.904;2022-09-11T01:59:26;44.73;;;25.17;;
11854;SDS011;5987;53.140;8.904;2022-09-11T02:02:39;53.23;;;26.50;;
11854;SDS011;5987;53.140;8.904;2022-09-11T02:05:48;55.03;;;27.80;;
11854;SDS011;5987;53.140;8.904;2022-09-11T02:08:59;47.77;;;25.67;;
11854;SDS011;5987;53.140;8.904;2022-09-11T02:12:10;58.60;;;25.67;;
11854;SDS011;5987;53.140;8.904;2022-09-11T02:15:18;46.07;;;25.43;;
11854;SDS011;5987;53.140;8.904;2022-09-11T02:18:28;34.60;;;23.70;;
11854;SDS011;5987;53.140;8.904;2022-09-11T02:21:44;39.13;;;23.87;;
11854;SDS011;5987;53.140;8.904;2022-09-11T02:24:49;33.27;;;23.87;;
11854;SDS011;5987;53.140;8.904;2022-09-11T02:27:53;38.43;;;25.13;;
11854;SDS011;5987;53.140;8.904;2022-09-11T02:30:59;37.77;;;24.50;;
11854;SDS011;5987;53.140;8.904;2022-09-11T02:34:03;29.67;;;21.57;;
11854;SDS011;5987;53.140;8.904;2022-09-11T02:37:12;30.30;;;21.47;;
11854;SDS011;5987;53.140;8.904;2022-09-11T02:40:37;28.43;;;21.23;;
11854;SDS011;5987;53.140;8.904;2022-09-11T02:43:55;26.77;;;19.37;;
11854;SDS011;5987;53.140;8.904;2022-09-11T02:47:13;30.07;;;20.30;;
11854;SDS011;5987;53.140;8.904;2022-09-11T02:50:32;25.63;;;20.77;;
11854;SDS011;5987;53.140;8.904;2022-09-11T02:54:43;27.63;;;20.13;;
11854;SDS011;5987;53.140;8.904;2022-09-11T02:57:58;26.27;;;20.67;;
11854;SDS011;5987;53.140;8.904;2022-09-11T03:01:07;24.73;;;20.07;;
11854;SDS011;5987;53.140;8.904;2022-09-11T03:04:13;24.13;;;19.40;;
11854;SDS011;5987;53.140;8.904;2022-09-11T03:07:18;26.73;;;20.43;;
11854;SDS011;5987;53.140;8.904;2022-09-11T03:10:22;28.53;;;22.00;;
11854;SDS011;5987;53.140;8.904;2022-09-11T03:13:26;29.03;;;22.20;;
11854;SDS011;5987;53.140;8.904;2022-09-11T03:16:29;29.87;;;22.70;;
11854;SDS011;5987;53.140;8.904;2022-09-11T03:19:35;31.37;;;21.87;;
11854;SDS011;5987;53.140;8.904;2022-09-11T03:22:38;34.27;;;22.63;;
11854;SDS011;5987;53.140;8.904;2022-09-11T03:25:42;28.73;;;22.03;;
11854;SDS011;5987;53.140;8.904;2022-09-11T03:28:46;30.97;;;22.60;;
11854;SDS011;5987;53.140;8.904;2022-09-11T03:31:49;29.47;;;22.83;;
11854;SDS011;5987;53.140;8.904;2022-09-11T03:34:54;29.30;;;22.23;;
11854;SDS011;5987;53.140;8.904;2022-09-11T03:37:58;28.27;;;20.40;;
11854;SDS011;5987;53.140;8.904;2022-09-11T03:41:02;28.83;;;20.73;;
11854;SDS011;5987;53.140;8.904;2022-09-11T03:44:06;33.30;;;23.47;;
11854;SDS011;5987;53.140;8.904;2022-09-11T03:47:10;36.17;;;23.37;;
11854;SDS011;5987;53.140;8.904;2022-09-11T03:50:16;38.20;;;24.67;;
11854;SDS011;5987;53.140;8.904;2022-09-11T03:53:20;41.63;;;25.13;;
11854;SDS011;5987;53.140;8.904;2022-09-11T03:56:23;46.30;;;26.70;;
11854;SDS011;5987;53.140;8.904;2022-09-11T03:59:28;53.63;;;28.07;;
11854;SDS011;5987;53.140;8.904;2022-09-11T04:02:33;55.90;;;29.57;;
11854;SDS011;5987;53.140;8.904;2022-09-11T04:05:38;68.80;;;32.33;;
11854;SDS011;5987;53.140;8.904;2022-09-11T04:08:44;87.63;;;34.50;;
11854;SDS011;5987;53.140;8.904;2022-09-11T04:11:48;92.47;;;33.97;;
11854;SDS011;5987;53.140;8.904;2022-09-11T04:14:52;102.87;;;37.17;;
11854;SDS011;5987;53.140;8.904;2022-09-11T04:17:57;133.10;;;38.20;;
11854;SDS011;5987;53.140;8.904;2022-09-11T04:21:08;133.53;;;39.47;;
11854;SDS011;5987;53.140;8.904;2022-09-11T04:24:13;115.90;;;35.47;;
11854;SDS011;5987;53.140;8.904;2022-09-11T04:27:17;159.43;;;39.60;;
11854;SDS011;5987;53.140;8.904;2022-09-11T04:30:23;104.83;;;36.37;;
11854;SDS011;5987;53.140;8.904;2022-09-11T04:33:28;88.27;;;35.93;;
11854;SDS011;5987;53.140;8.904;2022-09-11T04:36:34;158.30;;;40.83;;
11854;SDS011;5987;53.140;8.904;2022-09-11T04:39:37;107.60;;;38.43;;
11854;SDS011;5987;53.140;8.904;2022-09-11T04:42:41;104.77;;;38.10;;
11854;SDS011;5987;53.140;8.904;2022-09-11T04:45:45;167.23;;;39.13;;
11854;SDS011;5987;53.140;8.904;2022-09-11T04:48:49;104.03;;;35.63;;
11854;SDS011;5987;53.140;8.904;2022-09-11T04:51:58;120.27;;;36.87;;
11854;SDS011;5987;53.140;8.904;2022-09-11T04:55:03;101.17;;;36.73;;
11854;SDS011;5987;53.140;8.904;2022-09-11T04:58:07;106.17;;;36.13;;
11854;SDS011;5987;53.140;8.904;2022-09-11T05:01:13;147.73;;;38.70;;
11854;SDS011;5987;53.140;8.904;2022-09-11T05:04:18;234.90;;;45.03;;
11854;SDS011;5987;53.140;8.904;2022-09-11T05:07:28;132.27;;;37.20;;
11854;SDS011;5987;53.140;8.904;2022-09-11T05:10:35;194.97;;;43.10;;
11854;SDS011;5987;53.140;8.904;2022-09-11T05:13:39;150.13;;;37.67;;
11854;SDS011;5987;53.140;8.904;2022-09-11T05:16:44;211.73;;;44.13;;
11854;SDS011;5987;53.140;8.904;2022-09-11T05:19:48;267.50;;;47.17;;
11854;SDS011;5987;53.140;8.904;2022-09-11T05:22:53;231.27;;;44.93;;
11854;SDS011;5987;53.140;8.904;2022-09-11T05:25:57;274.20;;;49.40;;
11854;SDS011;5987;53.140;8.904;2022-09-11T05:29:02;256.20;;;46.13;;
11854;SDS011;5987;53.140;8.904;2022-09-11T05:32:09;240.43;;;43.97;;
11854;SDS011;5987;53.140;8.904;2022-09-11T05:35:13;220.20;;;44.23;;
11854;SDS011;5987;53.140;8.904;2022-09-11T05:38:19;206.33;;;42.20;;
11854;SDS011;5987;53.140;8.904;2022-09-11T05:41:24;173.83;;;39.90;;
11854;SDS011;5987;53.140;8.904;2022-09-11T05:44:28;206.07;;;42.10;;
11854;SDS011;5987;53.140;8.904;2022-09-11T05:47:32;200.00;;;40.50;;
11854;SDS011;5987;53.140;8.904;2022-09-11T05:50:36;266.70;;;45.77;;
11854;SDS011;5987;53.140;8.904;2022-09-11T05:53:41;155.37;;;37.87;;
11854;SDS011;5987;53.140;8.904;2022-09-11T05:56:46;232.43;;;46.30;;
11854;SDS011;5987;53.140;8.904;2022-09-11T05:59:50;154.13;;;38.10;;
11854;SDS011;5987;53.140;8.904;2022-09-11T06:02:53;128.30;;;36.53;;
11854;SDS011;5987;53.140;8.904;2022-09-11T06:05:59;169.93;;;38.93;;
11854;SDS011;5987;53.140;8.904;2022-09-11T06:09:05;137.97;;;37.73;;
11854;SDS011;5987;53.140;8.904;2022-09-11T06:12:09;169.77;;;40.73;;
11854;SDS011;5987;53.140;8.904;2022-09-11T06:15:31;169.30;;;41.30;;
11854;SDS011;5987;53.140;8.904;2022-09-11T06:18:47;124.43;;;37.80;;
11854;SDS011;5987;53.140;8.904;2022-09-11T06:21:53;114.73;;;38.07;;
11854;SDS011;5987;53.140;8.904;2022-09-11T06:24:58;135.93;;;37.97;;
11854;SDS011;5987;53.140;8.904;2022-09-11T06:28:02;105.60;;;36.67;;
11854;SDS011;5987;53.140;8.904;2022-09-11T06:31:07;121.87;;;35.97;;
11854;SDS011;5987;53.140;8.904;2022-09-11T06:34:16;85.50;;;32.47;;
11854;SDS011;5987;53.140;8.904;2022-09-11T06:37:20;85.77;;;34.47;;
11854;SDS011;5987;53.140;8.904;2022-09-11T06:40:25;80.27;;;31.40;;
11854;SDS011;5987;53.140;8.904;2022-09-11T06:43:29;73.20;;;31.03;;
11854;SDS011;5987;53.140;8.904;2022-09-11T06:46:34;85.40;;;33.10;;
11854;SDS011;5987;53.140;8.904;2022-09-11T06:49:37;78.87;;;31.77;;
11854;SDS011;5987;53.140;8.904;2022-09-11T06:52:41;62.83;;;31.73;;
11854;SDS011;5987;53.140;8.904;2022-09-11T06:55:46;70.17;;;32.50;;
11854;SDS011;5987;53.140;8.904;2022-09-11T06:58:50;59.80;;;30.73;;
11854;SDS011;5987;53.140;8.904;2022-09-11T07:01:54;58.57;;;30.07;;
11854;SDS011;5987;53.140;8.904;2022-09-11T07:04:58;55.87;;;27.83;;
11854;SDS011;5987;53.140;8.904;2022-09-11T07:08:02;62.30;;;29.00;;
11854;SDS011;5987;53.140;8.904;2022-09-11T07:11:08;56.30;;;28.13;;
11854;SDS011;5987;53.140;8.904;2022-09-11T07:14:13;58.17;;;29.53;;
11854;SDS011;5987;53.140;8.904;2022-09-11T07:17:21;61.93;;;29.20;;
11854;SDS011;5987;53.140;8.904;2022-09-11T07:20:25;56.27;;;27.57;;
11854;SDS011;5987;53.140;8.904;2022-09-11T07:23:38;49.03;;;27.03;;
11854;SDS011;5987;53.140;8.904;2022-09-11T07:26:45;52.23;;;27.33;;
11854;SDS011;5987;53.140;8.904;2022-09-11T07:29:51;50.30;;;27.47;;
11854;SDS011;5987;53.140;8.904;2022-09-11T07:32:55;48.50;;;27.27;;
11854;SDS011;5987;53.140;8.904;2022-09-11T07:35:58;44.87;;;26.70;;
11854;SDS011;5987;53.140;8.904;2022-09-11T07:39:07;43.73;;;26.07;;
11854;SDS011;5987;53.140;8.904;2022-09-11T07:45:54;44.90;;;25.77;;
11854;SDS011;5987;53.140;8.904;2022-09-11T07:48:58;44.97;;;25.87;;
11854;SDS011;5987;53.140;8.904;2022-09-11T07:52:06;38.53;;;25.37;;
11854;SDS011;5987;53.140;8.904;2022-09-11T07:55:16;33.83;;;21.47;;
11854;SDS011;5987;53.140;8.904;2022-09-11T07:58:21;31.80;;;22.40;;
11854;SDS011;5987;53.140;8.904;2022-09-11T08:01:25;28.00;;;20.23;;
11854;SDS011;5987;53.140;8.904;2022-09-11T08:04:31;26.23;;;20.07;;
11854;SDS011;5987;53.140;8.904;2022-09-11T08:07:35;26.17;;;19.00;;
11854;SDS011;5987;53.140;8.904;2022-09-11T08:10:38;22.87;;;18.13;;
11854;SDS011;5987;53.140;8.904;2022-09-11T08:13:45;21.90;;;17.83;;
11854;SDS011;5987;53.140;8.904;2022-09-11T08:16:51;20.13;;;16.60;;
11854;SDS011;5987;53.140;8.904;2022-09-11T08:19:56;20.00;;;15.57;;
11854;SDS011;5987;53.140;8.904;2022-09-11T08:23:00;21.80;;;14.63;;
11854;SDS011;5987;53.140;8.904;2022-09-11T08:26:04;16.70;;;14.23;;
11854;SDS011;5987;53.140;8.904;2022-09-11T08:29:10;14.30;;;12.77;;
11854;SDS011;5987;53.140;8.904;2022-09-11T08:32:14;14.33;;;12.83;;
11854;SDS011;5987;53.140;8.904;2022-09-11T08:35:19;13.70;;;12.07;;
11854;SDS011;5987;53.140;8.904;2022-09-11T08:38:23;14.53;;;12.67;;
11854;SDS011;5987;53.140;8.904;2022-09-11T08:41:29;13.07;;;11.63;;
11854;SDS011;5987;53.140;8.904;2022-09-11T08:44:45;14.47;;;12.97;;
11854;SDS011;5987;53.140;8.904;2022-09-11T08:47:55;12.73;;;11.37;;
11854;SDS011;5987;53.140;8.904;2022-09-11T08:51:01;13.47;;;11.50;;
11854;SDS011;5987;53.140;8.904;2022-09-11T08:54:06;10.67;;;9.57;;
11854;SDS011;5987;53.140;8.904;2022-09-11T08:57:30;10.80;;;8.63;;
11854;SDS011;5987;53.140;8.904;2022-09-11T09:00:48;8.93;;;8.13;;
11854;SDS011;5987;53.140;8.904;2022-09-11T09:04:13;9.70;;;8.43;;
11854;SDS011;5987;53.140;8.904;2022-09-11T09:07:45;9.73;;;7.40;;
11854;SDS011;5987;53.140;8.904;2022-09-11T09:11:08;7.70;;;6.90;;
11854;SDS011;5987;53.140;8.904;2022-09-11T09:14:50;6.80;;;6.20;;
11854;SDS011;5987;53.140;8.904;2022-09-11T09:18:30;5.13;;;4.60;;
11854;SDS011;5987;53.140;8.904;2022-09-11T09:21:39;6.00;;;5.40;;
11854;SDS011;5987;53.140;8.904;2022-09-11T09:24:52;5.47;;;5.03;;
11854;SDS011;5987;53.140;8.904;2022-09-11T09:28:02;5.57;;;5.03;;
11854;SDS011;5987;53.140;8.904;2022-09-11T09:31:20;5.73;;;5.23;;
11854;SDS011;5987;53.140;8.904;2022-09-11T09:34:32;5.13;;;4.60;;
11854;SDS011;5987;53.140;8.904;2022-09-11T09:37:41;5.63;;;5.03;;
11854;SDS011;5987;53.140;8.904;2022-09-11T09:40:49;6.53;;;5.33;;
11854;SDS011;5987;53.140;8.904;2022-09-11T09:44:14;6.07;;;5.03;;
11854;SDS011;5987;53.140;8.904;2022-09-11T09:47:32;4.23;;;3.57;;
11854;SDS011;5987;53.140;8.904;2022-09-11T09:50:41;4.20;;;3.80;;
11854;SDS011;5987;53.140;8.904;2022-09-11T09:53:47;4.20;;;3.80;;
11854;SDS011;5987;53.140;8.904;2022-09-11T09:56:56;4.33;;;3.93;;
11854;SDS011;5987;53.140;8.904;2022-09-11T10:00:04;5.83;;;5.20;;
11854;SDS011;5987;53.140;8.904;2022-09-11T10:03:18;7.27;;;6.00;;
11854;SDS011;5987;53.140;8.904;2022-09-11T10:06:25;6.83;;;6.23;;
11854;SDS011;5987;53.140;8.904;2022-09-11T10:09:32;8.17;;;7.37;;
11854;SDS011;5987;53.140;8.904;2022-09-11T10:12:36;8.07;;;5.33;;
11854;SDS011;5987;53.140;8.904;2022-09-11T10:15:47;5.10;;;4.17;;
11854;SDS011;5987;53.140;8.904;2022-09-11T10:18:52;3.67;;;3.37;;
11854;SDS011;5987;53.140;8.904;2022-09-11T10:22:04;3.60;;;3.30;;
11854;SDS011;5987;53.140;8.904;2022-09-11T10:25:25;4.27;;;3.97;;
11854;SDS011;5987;53.140;8.904;2022-09-11T10:28:31;3.23;;;3.03;;
11854;SDS011;5987;53.140;8.904;2022-09-11T10:31:37;2.50;;;2.40;;
11854;SDS011;5987;53.140;8.904;2022-09-11T10:34:49;3.07;;;2.87;;
11854;SDS011;5987;53.140;8.904;2022-09-11T10:38:01;2.53;;;2.33;;
11854;SDS011;5987;53.140;8.904;2022-09-11T10:41:26;4.43;;;2.40;;
11854;SDS011;5987;53.140;8.904;2022-09-11T10:44:35;3.30;;;2.87;;
11854;SDS011;5987;53.140;8.904;2022-09-11T10:47:44;3.17;;;2.87;;
11854;SDS011;5987;53.140;8.904;2022-09-11T10:50:50;2.80;;;2.50;;
11854;SDS011;5987;53.140;8.904;2022-09-11T10:54:21;3.33;;;3.03;;
11854;SDS011;5987;53.140;8.904;2022-09-11T10:57:41;3.30;;;2.43;;
11854;SDS011;5987;53.140;8.904;2022-09-11T11:00:48;2.50;;;2.30;;
11854;SDS011;5987;53.140;8.904;2022-09-11T11:03:54;2.50;;;2.30;;
11854;SDS011;5987;53.140;8.904;2022-09-11T11:07:01;3.30;;;2.93;;
11854;SDS011;5987;53.140;8.904;2022-09-11T11:10:20;2.43;;;2.30;;
11854;SDS011;5987;53.140;8.904;2022-09-11T11:13:47;2.40;;;2.20;;
11854;SDS011;5987;53.140;8.904;2022-09-11T11:17:08;2.40;;;2.30;;
11854;SDS011;5987;53.140;8.904;2022-09-11T11:20:27;2.80;;;2.60;;
11854;SDS011;5987;53.140;8.904;2022-09-11T11:23:49;3.07;;;2.77;;
11854;SDS011;5987;53.140;8.904;2022-09-11T11:27:46;3.10;;;2.80;;
11854;SDS011;5987;53.140;8.904;2022-09-11T11:31:26;3.13;;;2.70;;
11854;SDS011;5987;53.140;8.904;2022-09-11T11:34:51;4.63;;;2.50;;
11854;SDS011;5987;53.140;8.904;2022-09-11T11:38:17;2.93;;;2.73;;
11854;SDS011;5987;53.140;8.904;2022-09-11T11:41:28;2.87;;;2.63;;
11854;SDS011;5987;53.140;8.904;2022-09-11T11:44:40;3.27;;;2.97;;
11854;SDS011;5987;53.140;8.904;2022-09-11T11:47:49;3.07;;;2.87;;
11854;SDS011;5987;53.140;8.904;2022-09-11T11:50:56;3.87;;;2.73;;
11854;SDS011;5987;53.140;8.904;2022-09-11T11:54:08;3.30;;;2.83;;
11854;SDS011;5987;53.140;8.904;2022-09-11T11:57:21;3.30;;;3.00;;
11854;SDS011;5987;53.140;8.904;2022-09-11T12:00:37;3.17;;;2.97;;
11854;SDS011;5987;53.140;8.904;2022-09-11T12:03:48;2.23;;;2.03;;
11854;SDS011;5987;53.140;8.904;2022-09-11T12:07:00;2.60;;;2.40;;
11854;SDS011;5987;53.140;8.904;2022-09-11T12:10:16;2.50;;;2.30;;
11854;SDS011;5987;53.140;8.904;2022-09-11T12:13:28;2.67;;;2.47;;
11854;SDS011;5987;53.140;8.904;2022-09-11T12:16:36;2.80;;;2.60;;
11854;SDS011;5987;53.140;8.904;2022-09-11T12:19:43;2.60;;;1.80;;
11854;SDS011;5987;53.140;8.904;2022-09-11T12:23:33;2.00;;;1.83;;
11854;SDS011;5987;53.140;8.904;2022-09-11T12:27:36;2.73;;;2.53;;
11854;SDS011;5987;53.140;8.904;2022-09-11T12:31:11;2.33;;;2.00;;
11854;SDS011;5987;53.140;8.904;2022-09-11T12:34:18;2.33;;;2.13;;
11854;SDS011;5987;53.140;8.904;2022-09-11T12:37:29;2.60;;;2.40;;
11854;SDS011;5987;53.140;8.904;2022-09-11T12:40:44;2.00;;;1.60;;
11854;SDS011;5987;53.140;8.904;2022-09-11T12:43:56;2.47;;;2.27;;
11854;SDS011;5987;53.140;8.904;2022-09-11T12:47:05;2.10;;;2.00;;
11854;SDS011;5987;53.140;8.904;2022-09-11T12:50:21;2.00;;;1.90;;
11854;SDS011;5987;53.140;8.904;2022-09-11T12:53:30;1.73;;;1.60;;
11854;SDS011;5987;53.140;8.904;2022-09-11T12:56:43;1.77;;;1.17;;
11854;SDS011;5987;53.140;8.904;2022-09-11T12:59:51;1.60;;;1.30;;
11854;SDS011;5987;53.140;8.904;2022-09-11T13:03:01;1.30;;;1.20;;
11854;SDS011;5987;53.140;8.904;2022-09-11T13:06:09;2.10;;;1.10;;
11854;SDS011;5987;53.140;8.904;2022-09-11T13:09:16;2.10;;;1.20;;
11854;SDS011;5987;53.140;8.904;2022-09-11T13:12:43;1.43;;;0.83;;
11854;SDS011;5987;53.140;8.904;2022-09-11T13:15:56;0.80;;;0.80;;
11854;SDS011;5987;53.140;8.904;2022-09-11T13:19:01;0.90;;;0.90;;
11854;SDS011;5987;53.140;8.904;2022-09-11T13:22:20;2.63;;;1.20;;
11854;SDS011;5987;53.140;8.904;2022-09-11T13:25:28;1.40;;;1.13;;
11854;SDS011;5987;53.140;8.904;2022-09-11T13:28:41;0.97;;;0.97;;
11854;SDS011;5987;53.140;8.904;2022-09-11T13:31:49;0.90;;;0.90;;
11854;SDS011;5987;53.140;8.904;2022-09-11T13:34:55;0.80;;;0.70;;
11854;SDS011;5987;53.140;8.904;2022-09-11T13:38:14;1.80;;;0.90;;
11854;SDS011;5987;53.140;8.904;2022-09-11T13:41:25;0.90;;;0.77;;
11854;SDS011;5987;53.140;8.904;2022-09-11T13:44:35;1.00;;;1.00;;
11854;SDS011;5987;53.140;8.904;2022-09-11T13:47:44;1.20;;;1.10;;
11854;SDS011;5987;53.140;8.904;2022-09-11T13:50:48;1.20;;;1.10;;
11854;SDS011;5987;53.140;8.904;2022-09-11T13:53:57;1.33;;;1.00;;
11854;SDS011;5987;53.140;8.904;2022-09-11T13:57:11;0.83;;;0.60;;
11854;SDS011;5987;53.140;8.904;2022-09-11T14:00:35;1.43;;;0.70;;
11854;SDS011;5987;53.140;8.904;2022-09-11T14:03:41;0.60;;;0.60;;
11854;SDS011;5987;53.140;8.904;2022-09-11T14:06:48;0.60;;;0.60;;
11854;SDS011;5987;53.140;8.904;2022-09-11T14:09:56;0.90;;;0.70;;
11854;SDS011;5987;53.140;8.904;2022-09-11T14:13:11;0.70;;;0.70;;
11854;SDS011;5987;53.140;8.904;2022-09-11T14:16:23;0.67;;;0.67;;
11854;SDS011;5987;53.140;8.904;2022-09-11T14:19:32;0.87;;;0.60;;
11854;SDS011;5987;53.140;8.904;2022-09-11T14:22:38;1.00;;;0.50;;
11854;SDS011;5987;53.140;8.904;2022-09-11T14:29:23;1.60;;;0.40;;
11854;SDS011;5987;53.140;8.904;2022-09-11T14:32:29;0.73;;;0.50;;
11854;SDS011;5987;53.140;8.904;2022-09-11T14:35:37;0.63;;;0.33;;
11854;SDS011;5987;53.140;8.904;2022-09-11T14:38:41;0.40;;;0.40;;
11854;SDS011;5987;53.140;8.904;2022-09-11T14:41:46;0.43;;;0.40;;
11854;SDS011;5987;53.140;8.904;2022-09-11T14:44:50;0.77;;;0.37;;
11854;SDS011;5987;53.140;8.904;2022-09-11T14:47:53;0.50;;;0.40;;
11854;SDS011;5987;53.140;8.904;2022-09-11T14:50:57;0.67;;;0.40;;
11854;SDS011;5987;53.140;8.904;2022-09-11T14:54:03;1.43;;;0.53;;
11854;SDS011;5987;53.140;8.904;2022-09-11T14:57:10;0.30;;;0.30;;
11854;SDS011;5987;53.140;8.904;2022-09-11T15:00:21;0.50;;;0.50;;
11854;SDS011;5987;53.140;8.904;2022-09-11T15:03:24;0.50;;;0.50;;
11854;SDS011;5987;53.140;8.904;2022-09-11T15:06:30;0.50;;;0.40;;
11854;SDS011;5987;53.140;8.904;2022-09-11T15:09:34;1.57;;;0.30;;
11854;SDS011;5987;53.140;8.904;2022-09-11T15:12:39;0.80;;;0.80;;
11854;SDS011;5987;53.140;8.904;2022-09-11T15:15:43;1.40;;;0.40;;
11854;SDS011;5987;53.140;8.904;2022-09-11T15:18:47;1.07;;;0.60;;
11854;SDS011;5987;53.140;8.904;2022-09-11T15:21:51;0.40;;;0.40;;
11854;SDS011;5987;53.140;8.904;2022-09-11T15:24:57;0.73;;;0.50;;
11854;SDS011;5987;53.140;8.904;2022-09-11T15:28:02;0.30;;;0.30;;
11854;SDS011;5987;53.140;8.904;2022-09-11T15:31:07;0.97;;;0.50;;
11854;SDS011;5987;53.140;8.904;2022-09-11T15:34:12;0.60;;;0.50;;
11854;SDS011;5987;53.140;8.904;2022-09-11T15:37:17;1.63;;;0.43;;
11854;SDS011;5987;53.140;8.904;2022-09-11T15:40:20;0.60;;;0.40;;
11854;SDS011;5987;53.140;8.904;2022-09-11T15:43:32;0.80;;;0.60;;
11854;SDS011;5987;53.140;8.904;2022-09-11T15:46:39;0.70;;;0.70;;
11854;SDS011;5987;53.140;8.904;2022-09-11T15:49:43;0.80;;;0.80;;
11854;SDS011;5987;53.140;8.904;2022-09-11T15:52:48;0.70;;;0.70;;
11854;SDS011;5987;53.140;8.904;2022-09-11T15:55:59;0.80;;;0.80;;
11854;SDS011;5987;53.140;8.904;2022-09-11T15:59:07;0.50;;;0.50;;
11854;SDS011;5987;53.140;8.904;2022-09-11T16:02:14;0.60;;;0.60;;
11854;SDS011;5987;53.140;8.904;2022-09-11T16:05:17;0.37;;;0.37;;
11854;SDS011;5987;53.140;8.904;2022-09-11T16:08:23;0.50;;;0.50;;
11854;SDS011;5987;53.140;8.904;2022-09-11T16:11:27;0.77;;;0.50;;
11854;SDS011;5987;53.140;8.904;2022-09-11T16:14:34;0.40;;;0.40;;
11854;SDS011;5987;53.140;8.904;2022-09-11T16:17:38;0.83;;;0.60;;
11854;SDS011;5987;53.140;8.904;2022-09-11T16:20:42;1.17;;;0.50;;
11854;SDS011;5987;53.140;8.904;2022-09-11T16:23:46;0.40;;;0.40;;
11854;SDS011;5987;53.140;8.904;2022-09-11T16:26:56;0.50;;;0.50;;
11854;SDS011;5987;53.140;8.904;2022-09-11T16:30:03;0.57;;;0.57;;
11854;SDS011;5987;53.140;8.904;2022-09-11T16:33:28;0.40;;;0.40;;
11854;SDS011;5987;53.140;8.904;2022-09-11T16:36:33;2.07;;;0.40;;
11854;SDS011;5987;53.140;8.904;2022-09-11T16:39:39;1.50;;;0.60;;
11854;SDS011;5987;53.140;8.904;2022-09-11T16:42:43;1.07;;;0.70;;
11854;SDS011;5987;53.140;8.904;2022-09-11T16:45:51;0.50;;;0.50;;
11854;SDS011;5987;53.140;8.904;2022-09-11T16:48:55;0.50;;;0.50;;
11854;SDS011;5987;53.140;8.904;2022-09-11T16:52:02;0.80;;;0.67;;
11854;SDS011;5987;53.140;8.904;2022-09-11T16:55:07;0.50;;;0.50;;
11854;SDS011;5987;53.140;8.904;2022-09-11T16:58:13;0.50;;;0.50;;
11854;SDS011;5987;53.140;8.904;2022-09-11T17:01:19;1.40;;;0.40;;
11854;SDS011;5987;53.140;8.904;2022-09-11T17:04:25;0.50;;;0.50;;
11854;SDS011;5987;53.140;8.904;2022-09-11T17:07:29;0.43;;;0.40;;
11854;SDS011;5987;53.140;8.904;2022-09-11T17:10:33;0.63;;;0.57;;
11854;SDS011;5987;53.140;8.904;2022-09-11T17:13:37;1.80;;;0.70;;
11854;SDS011;5987;53.140;8.904;2022-09-11T17:16:42;1.37;;;0.60;;
11854;SDS011;5987;53.140;8.904;2022-09-11T17:19:46;0.83;;;0.70;;
11854;SDS011;5987;53.140;8.904;2022-09-11T17:22:52;2.70;;;2.43;;
11854;SDS011;5987;53.140;8.904;2022-09-11T17:25:58;1.17;;;0.60;;
11854;SDS011;5987;53.140;8.904;2022-09-11T17:29:07;0.70;;;0.70;;
11854;SDS011;5987;53.140;8.904;2022-09-11T17:32:12;0.60;;;0.60;;
11854;SDS011;5987;53.140;8.904;2022-09-11T17:35:29;1.57;;;0.80;;
11854;SDS011;5987;53.140;8.904;2022-09-11T17:38:34;1.60;;;1.00;;
11854;SDS011;5987;53.140;8.904;2022-09-11T17:41:38;2.10;;;2.00;;
11854;SDS011;5987;53.140;8.904;2022-09-11T17:44:42;1.70;;;1.60;;
11854;SDS011;5987;53.140;8.904;2022-09-11T17:47:47;1.50;;;1.20;;
11854;SDS011;5987;53.140;8.904;2022-09-11T17:51:00;1.17;;;1.07;;
11854;SDS011;5987;53.140;8.904;2022-09-11T17:54:06;1.00;;;0.90;;
11854;SDS011;5987;53.140;8.904;2022-09-11T17:57:10;0.70;;;0.70;;
11854;SDS011;5987;53.140;8.904;2022-09-11T18:00:15;1.00;;;0.63;;
11854;SDS011;5987;53.140;8.904;2022-09-11T18:03:20;1.03;;;0.80;;
11854;SDS011;5987;53.140;8.904;2022-09-11T18:06:25;1.00;;;0.83;;
11854;SDS011;5987;53.140;8.904;2022-09-11T18:09:31;0.87;;;0.87;;
11854;SDS011;5987;53.140;8.904;2022-09-11T18:12:35;1.27;;;1.00;;
11854;SDS011;5987;53.140;8.904;2022-09-11T18:15:38;1.97;;;1.30;;
11854;SDS011;5987;53.140;8.904;2022-09-11T18:18:43;2.40;;;1.37;;
11854;SDS011;5987;53.140;8.904;2022-09-11T18:21:48;2.37;;;1.20;;
11854;SDS011;5987;53.140;8.904;2022-09-11T18:24:53;1.10;;;1.00;;
11854;SDS011;5987;53.140;8.904;2022-09-11T18:28:00;1.70;;;1.30;;
11854;SDS011;5987;53.140;8.904;2022-09-11T18:31:05;1.50;;;0.93;;
11854;SDS011;5987;53.140;8.904;2022-09-11T18:34:12;1.10;;;1.00;;
11854;SDS011;5987;53.140;8.904;2022-09-11T18:37:18;1.80;;;0.90;;
11854;SDS011;5987;53.140;8.904;2022-09-11T18:40:23;1.50;;;1.20;;
11854;SDS011;5987;53.140;8.904;2022-09-11T18:43:26;2.17;;;1.30;;
11854;SDS011;5987;53.140;8.904;2022-09-11T18:46:31;1.60;;;1.50;;
11854;SDS011;5987;53.140;8.904;2022-09-11T18:49:36;1.40;;;1.30;;
11854;SDS011;5987;53.140;8.904;2022-09-11T18:52:40;1.87;;;1.37;;
11854;SDS011;5987;53.140;8.904;2022-09-11T18:55:44;2.43;;;1.70;;
11854;SDS011;5987;53.140;8.904;2022-09-11T18:58:48;1.87;;;1.40;;
11854;SDS011;5987;53.140;8.904;2022-09-11T19:01:53;2.03;;;1.70;;
11854;SDS011;5987;53.140;8.904;2022-09-11T19:04:59;1.70;;;1.60;;
11854;SDS011;5987;53.140;8.904;2022-09-11T19:08:02;1.50;;;1.40;;
11854;SDS011;5987;53.140;8.904;2022-09-11T19:11:07;1.50;;;1.33;;
11854;SDS011;5987;53.140;8.904;2022-09-11T19:14:13;2.17;;;1.27;;